Time;durP1;ratioP1;P1;durP2;ratioP2;P2;SDS_P1;SDS_P2;PMS_P1;PMS_P2;Temp;Humidity;BMP_temperature;BMP_pressure;BME280_temperature;BME280_humidity;BME280_pressure;Samples;Min_cycle;Max_cycle;Signal;HPM_P1;HPM_P2
2022/11/16 00:04:01;;;;;;;;;;;;;;;;;;10583261;28;19953;-61
2022/11/16 00:09:22;;;;;;;;;;;;;;;;;;10583262;28;19931;-61
2022/11/16 00:14:24;;;;;;;;;;;;;;;;;;10583112;28;19959;-61
2022/11/16 00:19:26;;;;;;;;;;;;;;;;;;10582572;28;19927;-61
2022/11/16 00:24:28;;;;;;;;;;;;;;;;;;10582141;28;19924;-61
2022/11/16 00:29:30;;;;;;;;;;;;;;;;;;10582946;28;20044;-61
2022/11/16 00:34:32;;;;;;;;;;;;;;;;;;10582631;28;19931;-61
2022/11/16 00:39:34;;;;;;;;;;;;;;;;;;10581923;28;19924;-61
2022/11/16 00:44:36;;;;;;;;;;;;;;;;;;10582386;28;19928;-61
2022/11/16 00:49:38;;;;;;;;;;;;;;;;;;10581693;28;20363;-61
2022/11/16 00:54:40;;;;;;;;;;;;;;;;;;10581808;28;20328;-61
2022/11/16 00:59:42;;;;;;;;;;;;;;;;;;10582161;28;19931;-61
2022/11/16 01:04:44;;;;;;;;;;;;;;;;;;10582022;28;19924;-61
2022/11/16 01:09:47;;;;;;;;;;;;;;;;;;10581305;28;19985;-61
2022/11/16 01:14:49;;;;;;;;;;;;;;;;;;10582075;28;19924;-61
2022/11/16 01:19:51;;;;;;;;;;;;;;;;;;10590012;28;19924;-61
2022/11/16 01:24:53;;;;;;;;;;;;;;;;;;10588993;28;19931;-61
2022/11/16 01:29:55;;;;;;;;;;;;;;;;;;10589585;28;19936;-61
2022/11/16 01:34:57;;;;;;;;;;;;;;;;;;10594485;22;19924;-61
2022/11/16 01:39:59;;;;;;;;;;;;;;;;;;10589218;28;19927;-62
2022/11/16 01:45:01;;;;;;;;;;;;;;;;;;10588936;28;19924;-62
2022/11/16 01:50:03;;;;;;;;;;;;;;;;;;10588792;28;19928;-62
2022/11/16 01:55:05;;;;;;;;;;;;;;;;;;10587895;28;19993;-62
2022/11/16 02:00:07;;;;;;;;;;;;;;;;;;10588275;28;20304;-62
2022/11/16 02:05:09;;;;;;;;;;;;;;;;;;10588076;28;19973;-62
2022/11/16 02:10:11;;;;;;;;;;;;;;;;;;10587953;28;19923;-62
2022/11/16 02:15:13;;;;;;;;;;;;;;;;;;10587109;28;19923;-63
2022/11/16 02:20:15;;;;;;;;;;;;;;;;;;10587553;28;19923;-62
2022/11/16 02:25:17;;;;;;;;;;;;;;;;;;10586669;28;19969;-62
2022/11/16 02:30:19;;;;;;;;;;;;;;;;;;10567667;28;19932;-62
2022/11/16 02:35:22;;;;;;;;;;;;;;;;;;10586273;28;19924;-62
2022/11/16 02:40:24;;;;;;;;;;;;;;;;;;10586604;28;20286;-62
2022/11/16 02:45:26;;;;;;;;;;;;;;;;;;10586406;28;19945;-62
2022/11/16 02:50:28;;;;;;;;;;;;;;;;;;10586334;28;19977;-62
2022/11/16 02:55:30;;;;;;;;;;;;;;;;;;10585490;28;19928;-62
2022/11/16 03:00:32;;;;;;;;;;;;;;;;;;10585271;28;19923;-62
2022/11/16 03:05:34;;;;;;;;;;;;;;;;;;10585844;28;19969;-62
2022/11/16 03:15:57;;;;;;;;;;;;;;;;;;10584644;28;20328;-62
2022/11/16 03:20:59;;;;;;;;;;;;;;;;;;10584457;28;20024;-62
2022/11/16 03:26:01;;;;;;;;;;;;;;;;;;10584072;28;19957;-63
2022/11/16 03:31:03;;;;;;;;;;;;;;;;;;10584753;28;19924;-62
2022/11/16 03:36:05;;;;;;;;;;;;;;;;;;10583512;28;19923;-62
2022/11/16 03:41:07;;;;;;;;;;;;;;;;;;10584024;28;19977;-62
2022/11/16 03:46:09;;;;;;;;;;;;;;;;;;10584011;28;19936;-62
2022/11/16 03:51:11;;;;;;;;;;;;;;;;;;10583321;28;20328;-62
2022/11/16 03:56:13;;;;;;;;;;;;;;;;;;10583605;28;19924;-62
2022/11/16 04:01:15;;;;;;;;;;;;;;;;;;10583146;28;19973;-62
2022/11/16 04:38:21;;;;;;;;;;;;;;;;;;10582833;28;20282;-62
2022/11/16 04:43:23;;;;;;;;;;;;;;;;;;10582454;28;19977;-62
2022/11/16 04:48:25;;;;;;;;;;;;;;;;;;10582394;28;19924;-61
2022/11/16 04:53:27;;;;;;;;;;;;;;;;;;10588061;28;20363;-62
2022/11/16 04:58:29;;;;;;;;;;;;;;;;;;10590849;28;19973;-62
2022/11/16 05:03:31;;;;;;;;;;;;;;;;;;10590267;28;19923;-62
2022/11/16 05:08:33;;;;;;;;;;;;;;;;;;10590448;28;19953;-62
2022/11/16 05:13:36;;;;;;;;;;;;;;;;;;10590319;28;19967;-62
2022/11/16 05:18:38;;;;;;;;;;;;;;;;;;10590024;28;19950;-62
2022/11/16 05:29:01;;;;;;;;;;;;;;;;;;10590525;28;19981;-62
2022/11/16 05:34:03;;;;;;;;;;;;;;;;;;10588724;28;19927;-62
2022/11/16 05:39:05;;;;;;;;;;;;;;;;;;10589267;28;19924;-62
2022/11/16 05:44:07;;;;;;;;;;;;;;;;;;10589461;28;19924;-62
2022/11/16 05:49:09;;;;;;;;;;;;;;;;;;10588729;28;19969;-62
2022/11/16 05:54:11;;;;;;;;;;;;;;;;;;10588667;28;19931;-63
2022/11/16 05:59:13;;;;;;;;;;;;;;;;;;10588416;28;19924;-62
2022/11/16 06:04:17;;;;;;;;;;;;;;;;;;10587978;28;19924;-63
2022/11/16 06:09:25;;;;;;;;;;;;;;;;;;10587492;28;19930;-62
2022/11/16 06:14:27;;;;;;;;;;;;;;;;;;10587842;28;19923;-63
2022/11/16 06:19:29;;;;;;;;;;;;;;;;;;10587039;28;19924;-63
2022/11/16 06:24:33;;;;;;;;;;;;;;;;;;10586596;28;20431;-62
2022/11/16 06:29:35;;;;;;;;;;;;;;;;;;10586637;28;19955;-62
2022/11/16 06:34:37;;;;;;;;;;;;;;;;;;10586322;28;20333;-62
2022/11/16 06:39:39;;;;;;;;;;;;;;;;;;10586853;28;19992;-62
2022/11/16 06:44:41;;;;;;;;;;;;;;;;;;10586556;28;19969;-62
2022/11/16 06:49:44;;;;;;;;;;;;;;;;;;10585800;28;20420;-63
2022/11/16 06:54:46;;;;;;;;;;;;;;;;;;10586170;28;19924;-63
2022/11/16 06:59:48;;;;;;;;;;;;;;;;;;10576092;28;19931;-69
2022/11/16 07:04:50;;;;;;;;;;;;;;;;;;10585000;28;19931;-69
2022/11/16 07:09:52;;;;;;;;;;;;;;;;;;10583566;28;19970;-69
2022/11/16 07:14:54;;;;;;;;;;;;;;;;;;10584373;28;19928;-69
2022/11/16 07:19:57;;;;;;;;;;;;;;;;;;10584993;28;19928;-69
2022/11/16 07:24:59;;;;;;;;;;;;;;;;;;10584239;28;19984;-69
2022/11/16 07:30:01;;;;;;;;;;;;;;;;;;10584705;28;19977;-69
2022/11/16 07:35:03;;;;;;;;;;;;;;;;;;10582618;28;19924;-69
2022/11/16 07:40:05;;;;;;;;;;;;;;;;;;10583974;28;19924;-69
2022/11/16 07:45:07;;;;;;;;;;;;;;;;;;10584134;28;19924;-69
2022/11/16 07:50:09;;;;;;;;;;;;;;;;;;10584045;28;19923;-69
2022/11/16 07:55:11;;;;;;;;;;;;;;;;;;10583880;28;19930;-69
2022/11/16 08:00:13;;;;;;;;;;;;;;;;;;10583723;28;19924;-69
2022/11/16 08:05:16;;;;;;;;;;;;;;;;;;10583313;28;19981;-69
2022/11/16 08:10:18;;;;;;;;;;;;;;;;;;10583976;28;19927;-69
2022/11/16 08:15:20;;;;;;;;;;;;;;;;;;10583725;28;19962;-69
2022/11/16 08:20:22;;;;;;;;;;;;;;;;;;10583081;28;19977;-69
2022/11/16 08:25:24;;;;;;;;;;;;;;;;;;10582193;28;20320;-69
2022/11/16 08:30:26;;;;;;;;;;;;;;;;;;10582177;28;20370;-69
2022/11/16 08:35:28;;;;;;;;;;;;;;;;;;10583036;28;19923;-69
2022/11/16 08:40:32;;;;;;;;;;;;;;;;;;10581980;28;20374;-70
2022/11/16 08:45:34;;;;;;;;;;;;;;;;;;10582745;28;19924;-70
2022/11/16 08:50:36;;;;;;;;;;;;;;;;;;10582406;28;19923;-70
2022/11/16 08:55:58;;;;;;;;;;;;;;;;;;10581698;28;19966;-70
2022/11/16 09:01:00;;;;;;;;;;;;;;;;;;10564323;28;19974;-70
2022/11/16 09:06:02;;;;;;;;;;;;;;;;;;10582069;28;19924;-70
2022/11/16 09:11:04;;;;;;;;;;;;;;;;;;10581636;28;19924;-71
2022/11/16 09:16:06;;;;;;;;;;;;;;;;;;10581283;28;20336;-71
2022/11/16 09:21:08;;;;;;;;;;;;;;;;;;10581815;28;19932;-71
2022/11/16 09:26:12;;;;;;;;;;;;;;;;;;10582124;28;19932;-71
2022/11/16 09:31:14;;;;;;;;;;;;;;;;;;10581039;28;19976;-71
2022/11/16 09:36:22;;;;;;;;;;;;;;;;;;10581638;28;20297;-71
2022/11/16 09:41:24;;;;;;;;;;;;;;;;;;10589161;28;19981;-72
2022/11/16 09:46:26;;;;;;;;;;;;;;;;;;10588925;28;19923;-71
2022/11/16 09:51:29;;;;;;;;;;;;;;;;;;10588712;28;19928;-71
2022/11/16 09:56:34;;;;;;;;;;;;;;;;;;10588607;28;19954;-72
2022/11/16 10:01:36;;;;;;;;;;;;;;;;;;10587818;28;19989;-72
2022/11/16 10:06:38;;;;;;;;;;;;;;;;;;10588208;28;19927;-71
2022/11/16 10:11:40;;;;;;;;;;;;;;;;;;10588005;28;19927;-71
2022/11/16 10:16:43;;;;;;;;;;;;;;;;;;10587798;28;19930;-71
2022/11/16 10:21:45;;;;;;;;;;;;;;;;;;10587528;28;20425;-71
2022/11/16 10:26:47;;;;;;;;;;;;;;;;;;10569323;28;19923;-71
2022/11/16 10:31:50;;;;;;;;;;;;;;;;;;10587242;28;19924;-71
2022/11/16 10:36:52;;;;;;;;;;;;;;;;;;10586637;28;19924;-71
2022/11/16 10:41:54;;;;;;;;;;;;;;;;;;10586918;28;19973;-71
2022/11/16 10:46:56;;;;;;;;;;;;;;;;;;10586588;28;19954;-71
2022/11/16 10:51:58;;;;;;;;;;;;;;;;;;10584793;28;19924;-71
2022/11/16 10:57:00;;;;;;;;;;;;;;;;;;10568186;28;19977;-71
2022/11/16 11:02:02;;;;;;;;;;;;;;;;;;10586017;28;19969;-71
2022/11/16 11:07:04;;;;;;;;;;;;;;;;;;10585066;28;20320;-70
2022/11/16 11:17:27;;;;;;;;;;;;;;;;;;10584707;28;19969;-71
2022/11/16 11:22:29;;;;;;;;;;;;;;;;;;10585096;28;19924;-71
2022/11/16 11:27:31;;;;;;;;;;;;;;;;;;10584845;28;19924;-71
2022/11/16 11:32:34;;;;;;;;;;;;;;;;;;10584082;28;20324;-71
2022/11/16 11:37:36;;;;;;;;;;;;;;;;;;10583990;28;20264;-71
2022/11/16 11:42:40;;;;;;;;;;;;;;;;;;10583997;28;19924;-66
2022/11/16 11:47:43;;;;;;;;;;;;;;;;;;10584025;28;19972;-66
2022/11/16 11:53:01;;;;;;;;;;;;;;;;;;10583957;28;19928;-66
2022/11/16 11:58:03;;;;;;;;;;;;;;;;;;10583179;28;19996;-66
2022/11/16 12:03:05;;;;;;;;;;;;;;;;;;10583249;28;19924;-66
2022/11/16 12:08:09;;;;;;;;;;;;;;;;;;10582830;28;19924;-66
2022/11/16 12:13:11;;;;;;;;;;;;;;;;;;10582673;28;19924;-66
2022/11/16 12:18:13;;;;;;;;;;;;;;;;;;10582476;28;19924;-66
2022/11/16 12:23:15;;;;;;;;;;;;;;;;;;10582850;28;19977;-66
2022/11/16 12:28:17;;;;;;;;;;;;;;;;;;10583379;28;19928;-66
2022/11/16 12:33:21;;;;;;;;;;;;;;;;;;10582666;28;20321;-66
2022/11/16 12:38:26;;;;;;;;;;;;;;;;;;10581866;28;20075;-65
2022/11/16 12:43:28;;;;;;;;;;;;;;;;;;10582026;28;19924;-65
2022/11/16 12:48:30;;;;;;;;;;;;;;;;;;10582523;28;19928;-65
2022/11/16 12:53:32;;;;;;;;;;;;;;;;;;10582147;28;20321;-65
2022/11/16 12:58:35;;;;;;;;;;;;;;;;;;10582294;28;19973;-65
2022/11/16 13:03:38;;;;;;;;;;;;;;;;;;10582072;28;20359;-65
2022/11/16 13:08:40;;;;;;;;;;;;;;;;;;10582401;28;19957;-65
2022/11/16 13:13:42;;;;;;;;;;;;;;;;;;10586261;28;20259;-65
2022/11/16 13:18:49;;;;;;;;;;;;;;;;;;10590205;28;19973;-65
2022/11/16 13:23:51;;;;;;;;;;;;;;;;;;10589313;28;20336;-65
2022/11/16 13:28:53;;;;;;;;;;;;;;;;;;10589764;28;19924;-65
2022/11/16 13:33:55;;;;;;;;;;;;;;;;;;10589852;28;19924;-65
2022/11/16 13:38:57;;;;;;;;;;;;;;;;;;10588655;28;19927;-65
2022/11/16 13:43:59;;;;;;;;;;;;;;;;;;10588492;28;20436;-65
2022/11/16 13:49:01;;;;;;;;;;;;;;;;;;10551398;22;19925;-66
2022/11/16 13:54:03;;;;;;;;;;;;;;;;;;10504752;28;19970;-67
2022/11/16 13:59:25;;;;;;;;;;;;;;;;;;10504465;28;20020;-67
2022/11/16 14:04:27;;;;;;;;;;;;;;;;;;10504266;28;19931;-67
2022/11/16 14:09:29;;;;;;;;;;;;;;;;;;10504110;28;19925;-67
2022/11/16 14:14:34;;;;;;;;;;;;;;;;;;10503324;28;20291;-67
2022/11/16 14:19:36;;;;;;;;;;;;;;;;;;10503759;28;19928;-67
2022/11/16 14:24:38;;;;;;;;;;;;;;;;;;10502753;28;20864;-67
2022/11/16 14:29:40;;;;;;;;;;;;;;;;;;10503370;28;19924;-67
2022/11/16 14:34:42;;;;;;;;;;;;;;;;;;10501316;28;20445;-67
2022/11/16 14:39:44;;;;;;;;;;;;;;;;;;10502949;28;19974;-67
2022/11/16 14:44:46;;;;;;;;;;;;;;;;;;10502026;28;19924;-67
2022/11/16 14:49:48;;;;;;;;;;;;;;;;;;10502232;28;19938;-67
2022/11/16 14:54:50;;;;;;;;;;;;;;;;;;10502246;28;19928;-67
2022/11/16 14:59:52;;;;;;;;;;;;;;;;;;10502070;28;19974;-67
2022/11/16 15:04:54;;;;;;;;;;;;;;;;;;10502014;28;19986;-67
2022/11/16 15:09:58;;;;;;;;;;;;;;;;;;10500379;28;20315;-67
2022/11/16 15:15:00;;;;;;;;;;;;;;;;;;10501503;28;19974;-67
2022/11/16 15:20:02;;;;;;;;;;;;;;;;;;10500375;28;19932;-67
2022/11/16 15:25:04;;;;;;;;;;;;;;;;;;10500822;28;20425;-67
2022/11/16 15:30:06;;;;;;;;;;;;;;;;;;10500852;28;19924;-67
2022/11/16 15:35:08;;;;;;;;;;;;;;;;;;10499487;28;20321;-67
2022/11/16 15:40:11;;;;;;;;;;;;;;;;;;10500531;28;19924;-67
2022/11/16 15:45:13;;;;;;;;;;;;;;;;;;10500235;28;19982;-67
2022/11/16 15:50:17;;;;;;;;;;;;;;;;;;10499515;28;19924;-67
2022/11/16 15:55:19;;;;;;;;;;;;;;;;;;10500358;28;19924;-67
2022/11/16 16:00:21;;;;;;;;;;;;;;;;;;10499752;28;19925;-67
2022/11/16 16:05:23;;;;;;;;;;;;;;;;;;10499548;28;19932;-67
2022/11/16 16:10:25;;;;;;;;;;;;;;;;;;10499469;28;19924;-67
2022/11/16 16:15:32;;;;;;;;;;;;;;;;;;10498706;28;19924;-67
2022/11/16 16:20:34;;;;;;;;;;;;;;;;;;10499259;28;19979;-67
2022/11/16 16:25:37;;;;;;;;;;;;;;;;;;10499049;28;19973;-67
2022/11/16 16:30:39;;;;;;;;;;;;;;;;;;10498973;28;19925;-67
2022/11/16 16:35:41;;;;;;;;;;;;;;;;;;10498229;28;19924;-67
2022/11/16 16:40:43;;;;;;;;;;;;;;;;;;10498688;28;19982;-67
2022/11/16 16:45:45;;;;;;;;;;;;;;;;;;10497976;28;20437;-67
2022/11/16 16:50:47;;;;;;;;;;;;;;;;;;10506938;28;19925;-67
2022/11/16 16:55:49;;;;;;;;;;;;;;;;;;10507063;28;19974;-67
2022/11/16 17:00:51;;;;;;;;;;;;;;;;;;10506707;28;20368;-67
2022/11/16 17:05:57;;;;;;;;;;;;;;;;;;10506585;28;19978;-67
2022/11/16 17:10:59;;;;;;;;;;;;;;;;;;10506152;28;20364;-67
2022/11/16 17:16:02;;;;;;;;;;;;;;;;;;10505562;28;20372;-67
2022/11/16 17:21:04;;;;;;;;;;;;;;;;;;10506080;28;20317;-63
2022/11/16 17:26:06;;;;;;;;;;;;;;;;;;10505637;28;19924;-64
2022/11/16 17:31:08;;;;;;;;;;;;;;;;;;10504978;28;19929;-64
2022/11/16 17:36:10;;;;;;;;;;;;;;;;;;10505427;28;19986;-64
2022/11/16 17:41:12;;;;;;;;;;;;;;;;;;10505739;28;19974;-63
2022/11/16 17:46:14;;;;;;;;;;;;;;;;;;10505470;28;19967;-64
2022/11/16 17:51:16;;;;;;;;;;;;;;;;;;10504301;28;19986;-63
2022/11/16 17:56:18;;;;;;;;;;;;;;;;;;10504651;28;19974;-64
2022/11/16 18:01:20;;;;;;;;;;;;;;;;;;10504005;28;19925;-64
2022/11/16 18:06:22;;;;;;;;;;;;;;;;;;10504274;28;20027;-63
2022/11/16 18:11:24;;;;;;;;;;;;;;;;;;10504441;28;20317;-63
2022/11/16 18:16:26;;;;;;;;;;;;;;;;;;10503901;28;19925;-63
2022/11/16 18:21:28;;;;;;;;;;;;;;;;;;10503149;28;19925;-63
2022/11/16 18:26:30;;;;;;;;;;;;;;;;;;10503491;28;19928;-63
2022/11/16 18:31:32;;;;;;;;;;;;;;;;;;10503300;28;19978;-63
2022/11/16 18:36:34;;;;;;;;;;;;;;;;;;10501339;28;19924;-64
2022/11/16 18:41:37;;;;;;;;;;;;;;;;;;10502304;28;20376;-63
2022/11/16 18:46:39;;;;;;;;;;;;;;;;;;10502449;28;19970;-64
2022/11/16 18:51:41;;;;;;;;;;;;;;;;;;10501892;28;19989;-64
2022/11/16 18:56:43;;;;;;;;;;;;;;;;;;10502867;28;19928;-64
2022/11/16 19:01:45;;;;;;;;;;;;;;;;;;10501657;28;19928;-64
2022/11/16 19:06:49;;;;;;;;;;;;;;;;;;10500499;28;21381;-64
2022/11/16 19:11:51;;;;;;;;;;;;;;;;;;10500228;28;20366;-64
2022/11/16 19:16:53;;;;;;;;;;;;;;;;;;10500884;28;20378;-63
2022/11/16 19:21:58;;;;;;;;;;;;;;;;;;10501302;28;19924;-64
2022/11/16 19:27:00;;;;;;;;;;;;;;;;;;10501054;28;19925;-64
2022/11/16 19:32:02;;;;;;;;;;;;;;;;;;10500247;28;20387;-64
2022/11/16 19:37:04;;;;;;;;;;;;;;;;;;10500036;28;19924;-64
2022/11/16 19:42:06;;;;;;;;;;;;;;;;;;10501024;28;19924;-64
2022/11/16 19:47:08;;;;;;;;;;;;;;;;;;10499325;28;20371;-63
2022/11/16 19:52:10;;;;;;;;;;;;;;;;;;10500154;28;19924;-63
2022/11/16 19:57:13;;;;;;;;;;;;;;;;;;10500421;28;19924;-64
2022/11/16 20:02:15;;;;;;;;;;;;;;;;;;10499751;28;19932;-64
2022/11/16 20:07:17;;;;;;;;;;;;;;;;;;10499445;28;19954;-64
2022/11/16 20:12:19;;;;;;;;;;;;;;;;;;10498850;28;20493;-64
2022/11/16 20:17:21;;;;;;;;;;;;;;;;;;10499540;28;19954;-64
2022/11/16 20:22:23;;;;;;;;;;;;;;;;;;10499021;28;20260;-64
2022/11/16 20:27:25;;;;;;;;;;;;;;;;;;10498940;28;19928;-64
2022/11/16 20:32:27;;;;;;;;;;;;;;;;;;10498360;28;19924;-64
2022/11/16 20:37:29;;;;;;;;;;;;;;;;;;10498896;28;19925;-63
2022/11/16 20:42:31;;;;;;;;;;;;;;;;;;10498161;28;19994;-63
2022/11/16 20:47:33;;;;;;;;;;;;;;;;;;10498358;28;19982;-64
2022/11/16 20:52:35;;;;;;;;;;;;;;;;;;10498018;28;19924;-64
2022/11/16 20:57:43;;;;;;;;;;;;;;;;;;10498566;28;19928;-64
2022/11/16 21:02:45;;;;;;;;;;;;;;;;;;10498452;28;19924;-64
2022/11/16 21:07:47;;;;;;;;;;;;;;;;;;10498312;28;19928;-64
2022/11/16 21:18:09;;;;;;;;;;;;;;;;;;10498143;28;19925;-64
2022/11/16 21:23:12;;;;;;;;;;;;;;;;;;10498016;28;19978;-64
2022/11/16 21:28:14;;;;;;;;;;;;;;;;;;10497701;28;20441;-64
2022/11/16 21:33:16;;;;;;;;;;;;;;;;;;10499559;28;19924;-63
2022/11/16 21:38:19;;;;;;;;;;;;;;;;;;10504733;28;20280;-64
2022/11/16 21:43:21;;;;;;;;;;;;;;;;;;10504589;28;19966;-64
2022/11/16 21:48:23;;;;;;;;;;;;;;;;;;10504582;28;19955;-64
2022/11/16 21:53:25;;;;;;;;;;;;;;;;;;10504218;28;19924;-64
2022/11/16 21:58:27;;;;;;;;;;;;;;;;;;10504589;28;19982;-64
2022/11/16 22:03:29;;;;;;;;;;;;;;;;;;10503797;28;20333;-64
2022/11/16 22:08:31;;;;;;;;;;;;;;;;;;10504677;28;19951;-64
2022/11/16 22:13:33;;;;;;;;;;;;;;;;;;10503943;28;20417;-64
2022/11/16 22:18:35;;;;;;;;;;;;;;;;;;10503243;28;20368;-64
2022/11/16 22:23:38;;;;;;;;;;;;;;;;;;10503546;28;19967;-64
2022/11/16 22:28:40;;;;;;;;;;;;;;;;;;10502756;28;20371;-64
2022/11/16 22:33:42;;;;;;;;;;;;;;;;;;10502856;28;19936;-64
2022/11/16 22:38:44;;;;;;;;;;;;;;;;;;10503066;28;19924;-64
2022/11/16 22:43:46;;;;;;;;;;;;;;;;;;10502864;28;19924;-63
2022/11/16 22:48:48;;;;;;;;;;;;;;;;;;10502102;28;20348;-63
2022/11/16 22:53:50;;;;;;;;;;;;;;;;;;10502604;28;19954;-64
2022/11/16 22:58:52;;;;;;;;;;;;;;;;;;10502296;28;19925;-63
2022/11/16 23:03:54;;;;;;;;;;;;;;;;;;10502088;28;19924;-64
2022/11/16 23:08:56;;;;;;;;;;;;;;;;;;10502299;28;19970;-63
2022/11/16 23:30:01;;;;;;;;;;;;;;;;;;10500907;28;20030;-63
2022/11/16 23:35:04;;;;;;;;;;;;;;;;;;10500152;28;20438;-63
2022/11/16 23:40:06;;;;;;;;;;;;;;;;;;10500572;28;19924;-63
2022/11/16 23:45:08;;;;;;;;;;;;;;;;;;10499614;28;20379;-63
2022/11/16 23:50:10;;;;;;;;;;;;;;;;;;10499757;28;19924;-63
2022/11/16 23:55:12;;;;;;;;;;;;;;;;;;10499568;28;19924;-63
